createdAt,value
2022-12-04T00:00:13.220Z,97047.00
2022-12-04T00:02:40.187Z,97047.59
2022-12-04T00:05:07.560Z,97036.53
2022-12-04T00:07:34.242Z,97044.31
2022-12-04T00:10:01.001Z,97042.16
2022-12-04T00:12:27.623Z,97042.28
2022-12-04T00:15:24.770Z,97043.47
2022-12-04T00:17:40.701Z,97043.72
2022-12-04T00:20:07.781Z,97044.31
2022-12-04T00:22:34.760Z,97044.53
2022-12-04T00:25:01.358Z,97037.34
2022-12-04T00:27:27.901Z,97040.75
2022-12-04T00:29:54.785Z,97038.28
2022-12-04T00:32:21.535Z,97036.53
2022-12-04T00:34:48.231Z,97028.75
2022-12-04T00:37:14.793Z,97033.94
2022-12-04T00:39:41.342Z,97031.22
2022-12-04T00:42:07.868Z,97027.69
2022-12-04T00:44:34.373Z,97027.44
2022-12-04T00:47:00.903Z,97027.34
2022-12-04T00:49:27.487Z,97022.06
2022-12-04T00:51:54.130Z,97022.75
2022-12-04T00:54:20.738Z,97026.06
2022-12-04T00:56:47.299Z,97018.53
2022-12-04T00:59:13.877Z,97016.97
2022-12-04T01:01:40.364Z,97016.06
2022-12-04T01:04:06.998Z,97017.34
2022-12-04T01:06:34.205Z,97022.41
2022-12-04T01:09:01.686Z,97016.41
2022-12-04T01:11:28.732Z,97021.00
2022-12-04T01:13:55.658Z,97020.38
2022-12-04T01:16:25.262Z,97023.34
2022-12-04T01:18:51.814Z,97030.41
2022-12-04T01:21:18.813Z,97020.03
2022-12-04T01:23:45.488Z,97022.63
2022-12-04T01:26:12.292Z,97015.09
2022-12-04T01:28:39.085Z,97021.22
2022-12-04T01:31:08.900Z,97022.28
2022-12-04T01:33:36.222Z,97020.75
2022-12-04T01:36:03.341Z,97023.34
2022-12-04T01:38:30.018Z,97014.03
2022-12-04T01:40:56.804Z,97013.34
2022-12-04T01:43:23.497Z,97012.03
2022-12-04T01:45:51.550Z,97008.97
2022-12-04T01:48:33.275Z,97005.69
2022-12-04T01:51:19.597Z,97005.19
2022-12-04T01:53:50.437Z,97001.91
2022-12-04T01:56:17.298Z,97009.06
2022-12-04T01:58:44.701Z,97000.00
2022-12-04T02:01:11.550Z,97001.66
2022-12-04T02:03:38.475Z,96997.66
2022-12-04T02:06:05.423Z,96998.38
2022-12-04T02:08:31.940Z,97006.97
2022-12-04T02:11:04.814Z,96990.09
2022-12-04T02:13:50.167Z,97003.50
2022-12-04T02:16:20.744Z,96999.03
2022-12-04T02:18:57.249Z,96998.22
2022-12-04T02:21:29.902Z,96999.63
2022-12-04T02:24:14.366Z,96996.22
2022-12-04T02:26:40.831Z,96999.75
2022-12-04T02:29:08.354Z,96996.34
2022-12-04T02:31:36.450Z,96998.56
2022-12-04T02:34:05.147Z,96995.75
2022-12-04T02:36:31.990Z,96995.63
2022-12-04T02:39:10.146Z,96999.16
2022-12-04T02:41:38.575Z,96990.84
2022-12-04T02:44:07.847Z,96993.91
2022-12-04T02:46:38.580Z,96988.97
2022-12-04T02:49:05.625Z,96989.78
2022-12-04T02:51:32.768Z,97007.78
2022-12-04T02:54:00.459Z,96994.84
2022-12-04T02:56:27.917Z,97001.66
2022-12-04T02:59:15.440Z,97004.00
2022-12-04T03:01:42.827Z,97001.66
2022-12-04T03:04:20.302Z,97002.38
2022-12-04T03:06:53.027Z,97002.13
2022-12-04T03:09:24.458Z,97008.94
2022-12-04T03:11:53.221Z,97001.06
2022-12-04T03:14:22.153Z,96995.88
2022-12-04T03:16:49.000Z,96997.06
2022-12-04T03:19:16.814Z,96993.53
2022-12-04T03:21:46.368Z,97000.94
2022-12-04T03:24:27.648Z,97000.47
2022-12-04T03:26:57.194Z,96997.19
2022-12-04T03:29:24.860Z,96987.75
2022-12-04T03:31:52.973Z,96993.44
2022-12-04T03:34:22.493Z,96998.09
2022-12-04T03:36:50.270Z,96993.75
2022-12-04T03:39:23.676Z,97002.97
2022-12-04T03:41:50.317Z,97003.63
2022-12-04T03:44:23.222Z,97003.50
2022-12-04T03:46:52.817Z,96996.69
2022-12-04T03:49:21.535Z,97003.41
2022-12-04T03:51:49.600Z,97003.50
2022-12-04T03:54:42.613Z,97005.28
2022-12-04T03:57:13.095Z,97004.69
2022-12-04T03:59:41.110Z,97007.63
2022-12-04T04:02:09.113Z,97006.94
2022-12-04T04:04:36.243Z,97001.47
2022-12-04T04:07:22.194Z,97011.75
2022-12-04T04:09:49.044Z,97008.41
2022-12-04T04:12:16.831Z,97014.28
2022-12-04T04:15:04.527Z,97016.06
2022-12-04T04:17:50.239Z,97018.84
2022-12-04T04:20:37.170Z,97011.81
2022-12-04T04:23:22.546Z,97006.84
2022-12-04T04:25:49.197Z,97005.53
2022-12-04T04:28:35.807Z,97007.78
2022-12-04T04:31:10.651Z,96998.94
2022-12-04T04:33:40.596Z,97008.59
2022-12-04T04:36:14.172Z,97017.16
2022-12-04T04:38:43.937Z,97011.06
2022-12-04T04:41:11.868Z,97005.66
2022-12-04T04:43:40.911Z,96991.41
2022-12-04T04:46:20.425Z,96993.91
2022-12-04T04:48:50.410Z,96994.84
2022-12-04T04:51:17.655Z,97000.13
2022-12-04T04:53:49.617Z,96988.31
2022-12-04T04:56:16.532Z,96985.75
2022-12-04T04:58:44.784Z,96983.91
2022-12-04T05:01:18.375Z,96981.06
2022-12-04T05:03:46.233Z,96980.84
2022-12-04T05:06:14.336Z,96982.25
2022-12-04T05:08:41.304Z,96992.38
2022-12-04T05:11:11.129Z,96986.25
2022-12-04T05:13:38.172Z,96982.25
2022-12-04T05:16:10.963Z,96983.91
2022-12-04T05:18:39.093Z,96991.66
2022-12-04T05:21:10.869Z,96985.66
2022-12-04T05:23:41.818Z,96988.84
2022-12-04T05:26:09.028Z,96986.97
2022-12-04T05:28:35.917Z,96987.09
2022-12-04T05:31:06.122Z,96994.63
2022-12-04T05:33:33.161Z,96986.16
2022-12-04T05:36:04.780Z,96983.09
2022-12-04T05:38:33.697Z,96986.03
2022-12-04T05:41:05.013Z,96978.16
2022-12-04T05:43:34.001Z,96988.38
2022-12-04T05:46:05.063Z,96991.31
2022-12-04T05:48:32.532Z,96991.19
2022-12-04T05:50:59.647Z,96982.97
2022-12-04T05:53:27.958Z,96973.44
2022-12-04T05:55:56.934Z,96977.78
2022-12-04T05:58:23.991Z,96979.31
2022-12-04T06:00:50.780Z,96985.78
2022-12-04T06:03:17.601Z,96979.19
2022-12-04T06:05:44.548Z,96977.78
2022-12-04T06:08:13.881Z,96975.50
2022-12-04T06:10:43.580Z,96975.31
2022-12-04T06:13:16.138Z,96979.63
2022-12-04T06:15:43.331Z,96967.03
2022-12-04T06:18:10.697Z,96975.19
2022-12-04T06:20:37.524Z,96969.28
2022-12-04T06:23:09.930Z,96973.03
2022-12-04T06:25:36.598Z,96984.44
2022-12-04T06:28:03.491Z,96991.47
2022-12-04T06:30:30.674Z,96981.97
2022-12-04T06:32:57.373Z,96986.09
2022-12-04T06:35:26.850Z,96994.94
2022-12-04T06:37:53.507Z,96982.94
2022-12-04T06:40:20.251Z,96993.91
2022-12-04T06:42:46.859Z,96994.25
2022-12-04T06:45:13.991Z,96996.84
2022-12-04T06:47:41.094Z,96990.72
2022-12-04T06:50:08.401Z,96994.25
2022-12-04T06:52:37.081Z,96990.84
2022-12-04T06:55:07.955Z,96999.19
2022-12-04T06:57:34.572Z,96990.97
2022-12-04T07:00:01.373Z,96994.84
2022-12-04T07:02:28.328Z,96995.53
2022-12-04T07:04:56.324Z,97000.59
2022-12-04T07:07:23.354Z,97007.75
2022-12-04T07:09:50.099Z,97001.75
2022-12-04T07:12:16.650Z,97004.47
2022-12-04T07:14:43.437Z,97008.06
2022-12-04T07:17:10.248Z,96999.41
2022-12-04T07:19:37.148Z,96995.16
2022-12-04T07:22:03.617Z,96993.59
2022-12-04T07:24:30.149Z,96993.50
2022-12-04T07:29:39.613Z,96995.16
2022-12-04T07:32:06.249Z,96997.66
2022-12-04T07:34:35.799Z,96994.94
2022-12-04T07:37:02.614Z,96991.31
2022-12-04T07:42:10.265Z,96993.31
2022-12-04T07:44:37.773Z,96995.47
2022-12-04T07:47:04.457Z,97001.06
2022-12-04T07:49:33.973Z,97001.31
2022-12-04T07:52:00.984Z,96993.66
2022-12-04T07:57:07.892Z,96999.19
2022-12-04T08:02:19.064Z,97002.25
2022-12-04T08:04:46.034Z,97018.34
2022-12-04T08:07:12.669Z,97021.53
2022-12-04T08:09:39.814Z,97012.84
2022-12-04T08:18:38.662Z,97029.13
2022-12-04T08:30:12.214Z,97021.41
2022-12-04T08:32:38.928Z,97023.03
2022-12-04T08:35:05.669Z,97023.41
2022-12-04T08:37:32.428Z,97025.03
2022-12-04T08:45:41.912Z,97026.13
2022-12-04T08:50:49.122Z,97024.25
2022-12-04T08:53:15.981Z,97026.72
2022-12-04T08:55:42.856Z,97017.19
2022-12-04T08:58:09.730Z,97017.66
2022-12-04T09:00:36.559Z,97014.84
2022-12-04T09:03:14.193Z,97007.78
2022-12-04T09:05:58.999Z,97007.44
2022-12-04T09:19:22.066Z,97021.22
2022-12-04T09:21:53.730Z,97027.22
2022-12-04T09:24:23.588Z,97034.41
2022-12-04T09:26:58.967Z,97037.91
2022-12-04T09:32:20.561Z,97050.63
2022-12-04T09:46:31.693Z,97040.31
2022-12-04T09:49:03.757Z,97042.78
2022-12-04T09:51:39.282Z,97039.72
2022-12-04T09:54:10.516Z,97038.41
2022-12-04T09:56:37.386Z,97031.47
2022-12-04T10:01:56.444Z,97029.53
2022-12-04T10:04:26.754Z,97034.13
2022-12-04T10:10:02.774Z,97035.03
2022-12-04T10:15:26.010Z,97019.09
2022-12-04T10:18:14.801Z,97015.91
2022-12-04T10:21:02.582Z,97012.34
2022-12-04T10:29:01.384Z,96998.28
2022-12-04T10:37:01.303Z,96974.25
2022-12-04T10:39:55.915Z,96975.50
2022-12-04T10:42:27.775Z,96983.59
2022-12-04T10:44:54.936Z,96988.22
2022-12-04T10:47:31.779Z,96984.94
2022-12-04T10:50:01.849Z,96982.47
2022-12-04T10:52:29.922Z,96966.75
2022-12-04T10:55:05.126Z,96969.91
2022-12-04T10:57:42.021Z,96967.44
2022-12-04T11:00:30.587Z,96964.97
2022-12-04T11:03:03.814Z,96962.69
2022-12-04T11:08:21.682Z,96961.56
2022-12-04T11:10:55.699Z,96968.41
2022-12-04T11:13:23.768Z,96966.25
2022-12-04T11:15:55.039Z,96968.72
2022-12-04T11:18:24.680Z,96974.34
2022-12-04T11:20:52.516Z,96969.41
2022-12-04T11:23:19.387Z,96965.28
2022-12-04T11:25:47.711Z,96960.06
2022-12-04T11:28:33.820Z,96964.97
2022-12-04T11:31:04.937Z,96961.19
2022-12-04T11:33:39.711Z,96952.97
2022-12-04T11:36:08.155Z,96951.44
2022-12-04T11:38:34.774Z,96946.09
2022-12-04T11:41:01.482Z,96944.38
2022-12-04T11:43:30.011Z,96936.97
2022-12-04T11:45:57.890Z,96939.38
2022-12-04T11:48:25.018Z,96940.06
2022-12-04T11:50:55.033Z,96936.22
2022-12-04T11:53:31.102Z,96940.06
2022-12-04T11:56:17.040Z,96936.78
2022-12-04T11:58:53.383Z,96940.47
2022-12-04T12:01:20.251Z,96927.19
2022-12-04T12:03:53.035Z,96933.75
2022-12-04T12:06:32.037Z,96930.41
2022-12-04T12:09:04.318Z,96933.38
2022-12-04T12:11:49.645Z,96932.94
2022-12-04T12:14:23.443Z,96926.91
2022-12-04T12:16:55.069Z,96930.22
2022-12-04T12:19:31.432Z,96926.00
2022-12-04T12:22:17.077Z,96926.44
2022-12-04T12:24:51.545Z,96915.16
2022-12-04T12:27:30.699Z,96911.84
2022-12-04T12:30:06.099Z,96900.78
2022-12-04T12:32:42.209Z,96898.34
2022-12-04T12:35:29.681Z,96886.91
2022-12-04T12:38:01.183Z,96883.50
2022-12-04T12:40:34.356Z,96890.69
2022-12-04T12:43:02.680Z,96883.38
2022-12-04T12:45:41.866Z,96884.00
2022-12-04T12:48:17.750Z,96879.50
2022-12-04T12:51:08.961Z,96870.63
2022-12-04T12:54:04.223Z,96879.50
2022-12-04T12:56:49.379Z,96883.22
2022-12-04T12:59:35.714Z,96877.78
2022-12-04T13:02:08.358Z,96873.97
2022-12-04T13:10:26.259Z,96876.00
2022-12-04T13:18:31.112Z,96890.97
2022-12-04T13:20:59.179Z,96893.25
2022-12-04T13:23:45.066Z,96897.38
2022-12-04T13:26:16.303Z,96902.72
2022-12-04T13:28:52.641Z,96909.22
2022-12-04T13:31:34.905Z,96900.63
2022-12-04T13:34:07.964Z,96896.25
2022-12-04T13:36:45.420Z,96906.22
2022-12-04T13:39:22.968Z,96902.72
2022-12-04T13:41:56.325Z,96903.63
2022-12-04T13:44:23.515Z,96914.41
2022-12-04T13:47:01.269Z,96900.63
2022-12-04T13:52:23.612Z,96912.34
2022-12-04T13:54:58.512Z,96918.38
2022-12-04T13:57:27.401Z,96920.41
2022-12-04T14:00:06.732Z,96919.72
2022-12-04T14:02:36.309Z,96917.94
2022-12-04T14:05:06.988Z,96916.66
2022-12-04T14:07:35.936Z,96914.19
2022-12-04T14:12:57.697Z,96900.50
2022-12-04T14:18:14.784Z,96890.09
2022-12-04T14:20:42.443Z,96885.47
2022-12-04T14:23:23.148Z,96885.28
2022-12-04T14:28:48.324Z,96884.09
2022-12-04T14:39:58.840Z,96873.59
2022-12-04T14:45:34.200Z,96875.16
2022-12-04T14:54:02.041Z,96877.59
2022-12-04T15:08:09.915Z,96869.28
2022-12-04T15:11:02.387Z,96871.31
2022-12-04T15:13:43.438Z,96866.38
2022-12-04T15:16:25.228Z,96869.53
2022-12-04T15:21:43.480Z,96863.78
2022-12-04T15:24:16.228Z,96864.88
2022-12-04T15:35:04.270Z,96866.50
2022-12-04T15:37:38.745Z,96875.25
2022-12-04T15:40:09.642Z,96877.84
2022-12-04T15:50:46.632Z,96871.84
2022-12-04T15:59:08.257Z,96876.63
2022-12-04T16:01:45.286Z,96884.53
2022-12-04T16:07:08.832Z,96878.78
2022-12-04T16:12:20.363Z,96886.72
2022-12-04T16:14:47.383Z,96886.94
2022-12-04T16:17:19.203Z,96889.66
2022-12-04T16:19:50.073Z,96887.19
2022-12-04T16:22:21.092Z,96901.25
2022-12-04T16:24:48.646Z,96895.38
2022-12-04T16:27:19.871Z,96898.41
2022-12-04T16:29:47.459Z,96908.06
2022-12-04T16:32:17.618Z,96907.94
2022-12-04T16:34:44.909Z,96915.59
2022-12-04T16:37:15.792Z,96908.91
2022-12-04T16:39:42.862Z,96910.81
2022-12-04T16:42:28.592Z,96914.84
2022-12-04T16:44:56.566Z,96922.03
2022-12-04T16:49:59.440Z,96916.16
2022-12-04T16:52:26.393Z,96920.34
2022-12-04T16:54:53.505Z,96924.97
2022-12-04T16:57:22.269Z,96925.38
2022-12-04T16:59:51.839Z,96929.59
2022-12-04T17:02:21.543Z,96925.81
2022-12-04T17:04:55.716Z,96926.75
2022-12-04T17:07:24.365Z,96922.94
2022-12-04T17:09:52.095Z,96930.03
2022-12-04T17:12:23.823Z,96922.38
2022-12-04T17:14:50.917Z,96928.66
2022-12-04T17:17:19.752Z,96927.00
2022-12-04T17:19:47.595Z,96923.91
2022-12-04T17:22:14.993Z,96926.75
2022-12-04T17:24:49.141Z,96928.66
2022-12-04T17:27:19.869Z,96920.28
2022-12-04T17:29:53.021Z,96921.69
2022-12-04T17:32:19.975Z,96927.69
2022-12-04T17:34:46.550Z,96922.25
2022-12-04T17:37:14.732Z,96922.13
2022-12-04T17:39:42.452Z,96926.75
2022-12-04T17:42:09.988Z,96924.84
2022-12-04T17:44:38.093Z,96925.41
2022-12-04T17:47:05.117Z,96919.53
2022-12-04T17:49:32.170Z,96916.38
2022-12-04T17:52:02.656Z,96914.47
2022-12-04T17:54:30.089Z,96911.38
2022-12-04T17:56:58.149Z,96912.31
2022-12-04T17:59:25.838Z,96907.38
2022-12-04T18:01:52.825Z,96914.47
2022-12-04T18:04:20.294Z,96921.81
2022-12-04T18:06:48.363Z,96914.84
2022-12-04T18:09:16.447Z,96917.06
2022-12-04T18:11:44.735Z,96916.38
2022-12-04T18:14:12.827Z,96917.47
2022-12-04T18:16:42.111Z,96903.88
2022-12-04T18:19:10.105Z,96913.09
2022-12-04T18:21:37.371Z,96909.53
2022-12-04T18:24:04.977Z,96916.38
2022-12-04T18:26:39.804Z,96920.22
2022-12-04T18:29:08.825Z,96916.69
2022-12-04T18:31:35.947Z,96913.13
2022-12-04T18:34:03.160Z,96914.22
2022-12-04T18:36:31.053Z,96915.16
2022-12-04T18:39:01.729Z,96910.69
2022-12-04T18:41:29.003Z,96920.22
2022-12-04T18:43:58.200Z,96918.59
2022-12-04T18:46:24.999Z,96919.66
2022-12-04T18:48:55.344Z,96910.69
2022-12-04T18:51:28.277Z,96912.06
2022-12-04T18:53:59.921Z,96906.19
2022-12-04T18:56:27.548Z,96912.66
2022-12-04T18:58:58.015Z,96912.75
2022-12-04T19:01:25.186Z,96916.56
2022-12-04T19:03:55.531Z,96915.59
2022-12-04T19:06:27.672Z,96914.91
2022-12-04T19:08:54.803Z,96917.63
2022-12-04T19:11:22.274Z,96923.38
2022-12-04T19:13:50.100Z,96915.59
2022-12-04T19:16:17.387Z,96921.88
2022-12-04T19:18:46.097Z,96929.16
2022-12-04T19:21:14.407Z,96917.72
2022-12-04T19:23:41.450Z,96927.28
2022-12-04T19:26:09.077Z,96927.28
2022-12-04T19:28:37.426Z,96925.72
2022-12-04T19:31:04.507Z,96925.72
2022-12-04T19:33:32.168Z,96927.63
2022-12-04T19:36:07.296Z,96926.69
2022-12-04T19:38:34.579Z,96925.72
2022-12-04T19:41:10.815Z,96931.16
2022-12-04T19:43:38.327Z,96933.41
2022-12-04T19:46:05.708Z,96934.22
2022-12-04T19:48:33.098Z,96936.69
2022-12-04T19:51:04.613Z,96934.81
2022-12-04T19:53:33.983Z,96933.03
2022-12-04T19:56:07.453Z,96936.56
2022-12-04T19:58:37.669Z,96939.66
2022-12-04T20:01:06.258Z,96937.06
2022-12-04T20:03:34.105Z,96939.44
2022-12-04T20:06:05.177Z,96935.88
2022-12-04T20:08:35.195Z,96934.81
2022-12-04T20:11:12.254Z,96932.78
2022-12-04T20:13:40.165Z,96929.91
2022-12-04T20:16:07.632Z,96927.56
2022-12-04T20:18:34.551Z,96930.44
2022-12-04T20:21:01.731Z,96923.47
2022-12-04T20:23:29.061Z,96924.16
2022-12-04T20:25:56.063Z,96924.97
2022-12-04T20:28:23.879Z,96917.06
2022-12-04T20:30:50.910Z,96924.84
2022-12-04T20:33:18.020Z,96917.13
2022-12-04T20:35:51.642Z,96915.72
2022-12-04T20:38:18.639Z,96914.53
2022-12-04T20:40:46.086Z,96905.09
2022-12-04T20:43:13.452Z,96903.22
2022-12-04T20:45:40.505Z,96903.22
2022-12-04T20:48:07.482Z,96909.22
2022-12-04T20:50:34.435Z,96908.63
2022-12-04T20:53:01.167Z,96907.00
2022-12-04T20:55:27.920Z,96912.06
2022-12-04T20:57:55.267Z,96902.16
2022-12-04T21:00:22.428Z,96909.09
2022-12-04T21:02:49.240Z,96904.84
2022-12-04T21:05:17.299Z,96906.50
2022-12-04T21:07:46.571Z,96905.91
2022-12-04T21:10:13.463Z,96910.28
2022-12-04T21:12:58.924Z,96903.69
2022-12-04T21:15:46.077Z,96905.59
2022-12-04T21:18:12.873Z,96906.44
2022-12-04T21:20:39.636Z,96905.59
2022-12-04T21:23:06.359Z,96911.94
2022-12-04T21:25:33.120Z,96913.59
2022-12-04T21:27:59.798Z,96909.59
2022-12-04T21:30:26.510Z,96908.91
2022-12-04T21:32:53.563Z,96901.09
2022-12-04T21:35:20.298Z,96908.41
2022-12-04T21:37:47.001Z,96908.63
2022-12-04T21:40:14.063Z,96907.00
2022-12-04T21:42:41.224Z,96909.59
2022-12-04T21:45:11.507Z,96907.69
2022-12-04T21:47:38.435Z,96910.41
2022-12-04T21:50:05.605Z,96906.50
2022-12-04T21:52:32.987Z,96910.03
2022-12-04T21:54:59.927Z,96913.34
2022-12-04T21:57:27.763Z,96913.34
2022-12-04T21:59:54.659Z,96908.69
2022-12-04T22:02:21.808Z,96912.25
2022-12-04T22:04:48.602Z,96919.91
2022-12-04T22:07:17.248Z,96910.34
2022-12-04T22:09:44.053Z,96918.00
2022-12-04T22:12:26.824Z,96921.28
2022-12-04T22:14:57.445Z,96920.34
2022-12-04T22:17:24.128Z,96925.41
2022-12-04T22:19:51.028Z,96932.09
2022-12-04T22:22:17.736Z,96929.41
2022-12-04T22:24:44.327Z,96933.78
2022-12-04T22:27:15.098Z,96932.00
2022-12-04T22:29:50.691Z,96938.03
2022-12-04T22:32:18.276Z,96950.03
2022-12-04T22:34:45.009Z,96944.16
2022-12-04T22:37:11.862Z,96939.19
2022-12-04T22:39:38.580Z,96941.09
2022-12-04T22:42:05.317Z,96937.56
2022-12-04T22:44:32.150Z,96939.19
2022-12-04T22:46:58.920Z,96942.75
2022-12-04T22:49:25.814Z,96945.34
2022-12-04T22:51:52.688Z,96945.34
2022-12-04T22:54:19.608Z,96940.03
2022-12-04T22:56:46.481Z,96939.78
2022-12-04T22:59:13.281Z,96932.09
2022-12-04T23:01:40.115Z,96945.34
2022-12-04T23:04:07.697Z,96939.06
2022-12-04T23:06:34.459Z,96937.28
2022-12-04T23:09:06.217Z,96933.06
2022-12-04T23:11:32.959Z,96934.69
2022-12-04T23:14:00.563Z,96942.38
2022-12-04T23:16:27.988Z,96938.03
2022-12-04T23:18:54.797Z,96943.91
2022-12-04T23:21:21.966Z,96939.66
2022-12-04T23:23:49.408Z,96936.09
2022-12-04T23:26:17.552Z,96940.34
2022-12-04T23:28:44.658Z,96936.09
2022-12-04T23:31:11.621Z,96942.94
2022-12-04T23:33:38.754Z,96945.53
2022-12-04T23:36:05.753Z,96953.06
2022-12-04T23:38:32.567Z,96946.09
2022-12-04T23:41:03.205Z,96944.47
2022-12-04T23:43:30.061Z,96949.53
2022-12-04T23:45:56.929Z,96949.53
2022-12-04T23:48:23.943Z,96944.34
2022-12-04T23:50:50.798Z,96945.97
2022-12-04T23:53:17.682Z,96949.53
2022-12-04T23:55:44.333Z,96944.47
2022-12-04T23:58:10.918Z,96948.84
